Time;durP1;ratioP1;P1;durP2;ratioP2;P2;SDS_P1;SDS_P2;PMS_P1;PMS_P2;Temp;Humidity;BMP_temperature;BMP_pressure;BME280_temperature;BME280_humidity;BME280_pressure;Samples;Min_cycle;Max_cycle;Signal;HPM_P1;HPM_P2
2021/08/02 00:03:25;;;;;;;;;31.00;28.50;;;;;;;;8700263;40;10930;-62
2021/08/02 00:09:36;;;;;;;;;31.75;30.50;;;;;;;;8700641;40;10860;-62
2021/08/02 00:15:39;;;;;;;;;37.25;32.25;;;;;;;;8700216;40;10677;-62
2021/08/02 00:21:42;;;;;;;;;36.25;32.50;;;;;;;;8700453;40;10963;-62
2021/08/02 00:27:45;;;;;;;;;36.50;35.25;;;;;;;;8701698;40;11136;-62
2021/08/02 00:33:48;;;;;;;;;33.25;32.25;;;;;;;;8701337;40;10668;-62
2021/08/02 00:40:05;;;;;;;;;31.25;30.75;;;;;;;;8701843;40;10660;-63
2021/08/02 00:46:09;;;;;;;;;35.75;32.25;;;;;;;;8700433;40;10662;-62
2021/08/02 00:52:12;;;;;;;;;33.75;29.00;;;;;;;;8700953;40;10924;-61
2021/08/02 00:58:17;;;;;;;;;39.00;34.25;;;;;;;;8699518;40;11030;-62
2021/08/02 01:04:23;;;;;;;;;33.50;30.75;;;;;;;;8700849;40;10709;-63
2021/08/02 01:10:27;;;;;;;;;31.25;30.00;;;;;;;;8700231;40;10669;-63
2021/08/02 01:16:32;;;;;;;;;33.50;30.50;;;;;;;;8707486;40;10940;-62
2021/08/02 01:22:37;;;;;;;;;31.50;27.50;;;;;;;;8699765;40;11289;-62
2021/08/02 01:29:17;;;;;;;;;34.50;31.00;;;;;;;;8699061;40;10793;-63
2021/08/02 01:35:21;;;;;;;;;31.75;29.75;;;;;;;;8699470;40;10707;-63
2021/08/02 01:41:26;;;;;;;;;30.75;28.75;;;;;;;;8699744;40;10810;-62
2021/08/02 01:47:48;;;;;;;;;29.25;29.25;;;;;;;;8706304;40;10731;-62
2021/08/02 01:54:04;;;;;;;;;31.75;31.50;;;;;;;;8707243;40;10737;-62
2021/08/02 02:00:13;;;;;;;;;34.25;33.25;;;;;;;;8705904;40;11335;-62
2021/08/02 02:06:23;;;;;;;;;31.25;28.25;;;;;;;;8699612;40;10821;-62
2021/08/02 02:12:26;;;;;;;;;30.25;29.00;;;;;;;;8706399;40;10810;-62
2021/08/02 02:18:34;;;;;;;;;30.25;30.25;;;;;;;;8705769;40;11001;-63
2021/08/02 02:24:39;;;;;;;;;37.00;33.00;;;;;;;;8697515;41;10645;-61
2021/08/02 02:30:47;;;;;;;;;35.00;31.25;;;;;;;;8698662;40;10960;-62
2021/08/02 02:36:51;;;;;;;;;33.00;29.50;;;;;;;;8698971;40;10886;-62
2021/08/02 02:42:56;;;;;;;;;32.50;30.75;;;;;;;;8703087;40;10674;-63
2021/08/02 02:49:02;;;;;;;;;31.75;31.25;;;;;;;;8710356;40;10800;-63
2021/08/02 02:55:06;;;;;;;;;29.50;29.00;;;;;;;;8701679;40;10815;-62
2021/08/02 03:01:14;;;;;;;;;32.00;31.25;;;;;;;;8708579;40;10907;-61
2021/08/02 03:07:18;;;;;;;;;39.00;35.75;;;;;;;;8701237;40;11188;-62
2021/08/02 03:13:21;;;;;;;;;46.33;37.67;;;;;;;;8701579;40;10761;-62
2021/08/02 03:19:23;;;;;;;;;45.00;38.00;;;;;;;;8702189;40;10443;-63
2021/08/02 03:25:25;;;;;;;;;48.00;40.67;;;;;;;;8702572;41;10506;-62
2021/08/02 03:31:40;;;;;;;;;45.33;40.67;;;;;;;;8701287;40;10895;-62
2021/08/02 03:37:44;;;;;;;;;47.67;39.67;;;;;;;;8701197;41;10293;-64
2021/08/02 03:43:48;;;;;;;;;43.33;37.67;;;;;;;;8701012;41;10684;-63
2021/08/02 03:49:50;;;;;;;;;47.67;40.33;;;;;;;;8701641;40;10920;-62
2021/08/02 03:55:54;;;;;;;;;45.00;40.33;;;;;;;;8701687;40;10060;-62
2021/08/02 04:01:57;;;;;;;;;56.00;45.33;;;;;;;;9763494;23;10744;-59
2021/08/02 04:07:59;;;;;;;;;46.33;39.33;;;;;;;;8722964;40;10730;-59
2021/08/02 04:14:01;;;;;;;;;49.67;43.33;;;;;;;;8726438;40;10001;-59
2021/08/02 04:20:06;;;;;;;;;48.67;41.67;;;;;;;;8728725;40;10475;-59
2021/08/02 04:26:11;;;;;;;;;50.67;43.67;;;;;;;;8728225;40;10537;-58
2021/08/02 04:32:16;;;;;;;;;47.67;40.67;;;;;;;;8727922;40;10216;-59
2021/08/02 04:38:19;;;;;;;;;42.67;38.33;;;;;;;;8729349;40;10453;-59
2021/08/02 04:44:21;;;;;;;;;52.33;43.00;;;;;;;;8727537;40;10948;-59
2021/08/02 04:50:23;;;;;;;;;50.00;41.25;;;;;;;;8729102;40;11124;-59
2021/08/02 04:56:25;;;;;;;;;48.75;40.25;;;;;;;;8727432;40;10940;-59
2021/08/02 05:02:27;;;;;;;;;50.25;41.50;;;;;;;;8728517;40;10903;-58
2021/08/02 05:08:30;;;;;;;;;51.00;44.25;;;;;;;;8728777;40;11176;-59
2021/08/02 05:14:32;;;;;;;;;47.25;42.00;;;;;;;;8726996;40;10880;-59
2021/08/02 05:20:34;;;;;;;;;48.75;41.00;;;;;;;;8728582;40;10989;-58
2021/08/02 05:26:37;;;;;;;;;49.00;40.25;;;;;;;;8726432;40;11081;-58
2021/08/02 05:32:40;;;;;;;;;42.00;39.50;;;;;;;;8725853;40;10663;-58
2021/08/02 05:38:43;;;;;;;;;49.25;42.50;;;;;;;;8725206;40;11092;-58
2021/08/02 05:44:45;;;;;;;;;49.75;41.50;;;;;;;;8725475;40;10758;-59
2021/08/02 05:50:47;;;;;;;;;47.00;39.25;;;;;;;;8724779;40;10823;-58
2021/08/02 05:56:49;;;;;;;;;47.75;40.25;;;;;;;;8723883;40;10654;-58
2021/08/02 06:02:51;;;;;;;;;45.50;40.25;;;;;;;;8724890;40;10679;-57
2021/08/02 06:08:54;;;;;;;;;52.00;42.50;;;;;;;;8717657;40;10586;-58
2021/08/02 06:14:56;;;;;;;;;53.25;42.75;;;;;;;;8714210;40;10704;-58
2021/08/02 06:20:58;;;;;;;;;47.75;41.00;;;;;;;;8727567;40;10644;-57
2021/08/02 06:27:02;;;;;;;;;49.25;44.00;;;;;;;;8717989;40;10997;-58
2021/08/02 06:33:06;;;;;;;;;45.00;40.75;;;;;;;;8718270;40;10763;-58
2021/08/02 06:39:08;;;;;;;;;46.50;38.50;;;;;;;;8717761;40;10827;-58
2021/08/02 06:45:10;;;;;;;;;49.25;42.00;;;;;;;;8717847;40;10707;-56
2021/08/02 06:51:13;;;;;;;;;47.50;41.75;;;;;;;;8719468;40;10756;-57
2021/08/02 06:57:16;;;;;;;;;48.75;41.25;;;;;;;;8719510;40;10698;-58
2021/08/02 07:03:18;;;;;;;;;67.25;54.50;;;;;;;;8720317;40;10897;-58
2021/08/02 07:09:21;;;;;;;;;49.00;43.00;;;;;;;;8718694;40;11294;-57
2021/08/02 07:15:23;;;;;;;;;44.00;40.50;;;;;;;;8718774;40;10751;-58
2021/08/02 07:21:25;;;;;;;;;47.50;41.75;;;;;;;;8716928;40;10574;-57
2021/08/02 07:27:27;;;;;;;;;50.50;41.50;;;;;;;;8718215;40;10918;-58
2021/08/02 07:33:29;;;;;;;;;39.25;36.75;;;;;;;;8711827;40;10640;-59
2021/08/02 07:39:31;;;;;;;;;54.75;45.00;;;;;;;;8723627;40;10632;-57
2021/08/02 07:45:34;;;;;;;;;50.25;42.75;;;;;;;;8739544;40;10604;-59
2021/08/02 07:51:36;;;;;;;;;53.50;46.00;;;;;;;;8731259;40;10649;-58
2021/08/02 07:57:39;;;;;;;;;51.25;43.75;;;;;;;;8732093;40;10865;-59
2021/08/02 08:03:43;;;;;;;;;44.00;40.50;;;;;;;;8731501;40;10619;-58
2021/08/02 08:09:45;;;;;;;;;42.50;36.75;;;;;;;;8722816;40;10673;-58
2021/08/02 08:15:47;;;;;;;;;51.25;42.00;;;;;;;;8720796;40;11154;-58
2021/08/02 08:21:50;;;;;;;;;50.00;41.75;;;;;;;;8709190;40;10692;-59
2021/08/02 08:27:52;;;;;;;;;48.25;40.50;;;;;;;;8696888;41;10756;-59
2021/08/02 08:33:55;;;;;;;;;44.50;36.75;;;;;;;;8723418;40;11113;-58
2021/08/02 08:39:57;;;;;;;;;43.25;37.25;;;;;;;;8738349;40;10601;-57
2021/08/02 08:46:02;;;;;;;;;40.00;35.75;;;;;;;;8735496;40;10584;-58
2021/08/02 08:52:05;;;;;;;;;47.25;39.25;;;;;;;;8719568;40;10589;-59
2021/08/02 08:58:07;;;;;;;;;56.75;44.75;;;;;;;;8719138;40;10730;-57
2021/08/02 09:04:09;;;;;;;;;39.75;36.50;;;;;;;;8719677;40;11703;-59
2021/08/02 09:10:14;;;;;;;;;36.25;35.00;;;;;;;;8709267;40;10637;-57
2021/08/02 09:16:25;;;;;;;;;39.25;36.75;;;;;;;;8725040;40;11327;-58
2021/08/02 09:22:30;;;;;;;;;56.25;46.00;;;;;;;;8721700;40;11208;-59
2021/08/02 09:28:33;;;;;;;;;42.00;36.25;;;;;;;;8720629;40;10607;-58
2021/08/02 09:34:45;;;;;;;;;40.75;34.75;;;;;;;;8719410;40;10562;-58
2021/08/02 09:40:49;;;;;;;;;36.50;32.75;;;;;;;;8728059;40;10850;-60
2021/08/02 09:47:01;;;;;;;;;37.75;34.25;;;;;;;;8721379;40;10964;-57
2021/08/02 09:53:03;;;;;;;;;37.75;34.00;;;;;;;;8721096;40;10661;-60
2021/08/02 09:59:09;;;;;;;;;28.75;26.25;;;;;;;;8708537;40;10595;-58
2021/08/02 10:05:15;;;;;;;;;31.25;31.25;;;;;;;;8730119;40;10642;-59
2021/08/02 10:11:17;;;;;;;;;34.50;30.00;;;;;;;;8736882;40;11184;-59
2021/08/02 10:17:20;;;;;;;;;29.75;24.00;;;;;;;;8718704;40;10780;-59
2021/08/02 10:23:25;;;;;;;;;29.75;28.25;;;;;;;;8719372;40;10623;-58
2021/08/02 10:29:41;;;;;;;;;25.75;24.00;;;;;;;;8718647;40;10692;-59
2021/08/02 10:35:46;;;;;;;;;15.00;14.25;;;;;;;;8708299;40;10692;-62
2021/08/02 10:41:48;;;;;;;;;21.25;18.00;;;;;;;;8712496;40;10585;-59
2021/08/02 10:47:51;;;;;;;;;21.50;17.50;;;;;;;;8699694;40;10649;-58
2021/08/02 10:54:00;;;;;;;;;17.25;17.25;;;;;;;;8720644;40;10528;-57
2021/08/02 11:00:05;;;;;;;;;21.25;18.50;;;;;;;;8737907;40;10834;-59
2021/08/02 11:06:18;;;;;;;;;22.75;20.25;;;;;;;;8715110;40;10731;-58
2021/08/02 11:12:22;;;;;;;;;23.25;20.00;;;;;;;;8721120;40;10685;-57
2021/08/02 11:18:28;;;;;;;;;15.25;14.25;;;;;;;;8727829;40;10529;-58
2021/08/02 11:24:33;;;;;;;;;15.50;13.25;;;;;;;;8712688;40;10621;-61
2021/08/02 11:30:35;;;;;;;;;17.75;15.00;;;;;;;;8708363;40;10632;-58
2021/08/02 11:36:38;;;;;;;;;13.75;12.00;;;;;;;;8698839;40;10720;-57
2021/08/02 11:42:42;;;;;;;;;18.25;14.50;;;;;;;;8716462;40;10570;-57
2021/08/02 11:48:45;;;;;;;;;14.75;14.75;;;;;;;;8723019;40;10770;-59
2021/08/02 11:55:08;;;;;;;;;18.00;15.50;;;;;;;;8722544;40;10739;-59
2021/08/02 12:01:11;;;;;;;;;16.25;14.25;;;;;;;;8720477;40;11163;-58
2021/08/02 12:07:24;;;;;;;;;14.25;11.75;;;;;;;;8720283;40;10470;-57
2021/08/02 12:13:39;;;;;;;;;18.00;14.25;;;;;;;;8722511;40;10616;-57
2021/08/02 12:19:51;;;;;;;;;14.25;13.25;;;;;;;;8720634;40;10576;-60
2021/08/02 12:25:55;;;;;;;;;14.00;12.00;;;;;;;;8729978;40;10749;-58
2021/08/02 12:32:00;;;;;;;;;13.50;12.50;;;;;;;;8743054;40;10480;-58
2021/08/02 12:38:05;;;;;;;;;14.50;14.50;;;;;;;;8744458;40;10492;-57
2021/08/02 12:44:08;;;;;;;;;15.25;13.50;;;;;;;;8743790;40;10766;-58
2021/08/02 12:50:12;;;;;;;;;16.25;15.50;;;;;;;;8732270;40;10570;-58
2021/08/02 12:56:14;;;;;;;;;15.50;13.50;;;;;;;;8713981;40;10503;-57
2021/08/02 13:02:16;;;;;;;;;19.75;15.75;;;;;;;;8720032;40;11550;-57
2021/08/02 13:08:18;;;;;;;;;15.75;14.00;;;;;;;;8703745;40;10526;-57
2021/08/02 13:14:20;;;;;;;;;20.25;17.25;;;;;;;;8725015;40;10780;-58
2021/08/02 13:20:23;;;;;;;;;15.25;12.75;;;;;;;;8719488;40;10742;-59
2021/08/02 13:32:48;;;;;;;;;12.75;11.25;;;;;;;;8738536;40;11183;-57
2021/08/02 13:38:57;;;;;;;;;11.50;10.75;;;;;;;;8718063;40;10748;-57
2021/08/02 13:44:59;;;;;;;;;20.00;17.50;;;;;;;;8718769;40;10620;-58
2021/08/02 13:51:01;;;;;;;;;12.25;10.25;;;;;;;;8721131;40;10564;-57
2021/08/02 13:57:04;;;;;;;;;15.00;13.00;;;;;;;;8722775;40;10508;-57
2021/08/02 14:03:07;;;;;;;;;14.25;13.00;;;;;;;;8717843;40;10650;-62
2021/08/02 14:09:11;;;;;;;;;12.75;11.00;;;;;;;;8720459;40;10497;-60
2021/08/02 14:15:17;;;;;;;;;18.25;13.50;;;;;;;;8722747;40;10588;-59
2021/08/02 14:21:20;;;;;;;;;12.25;12.25;;;;;;;;8722934;40;10490;-61
2021/08/02 14:27:23;;;;;;;;;18.75;15.00;;;;;;;;8723174;40;10598;-60
2021/08/02 14:33:26;;;;;;;;;18.25;16.50;;;;;;;;8724260;40;10769;-60
2021/08/02 14:39:36;;;;;;;;;15.00;14.25;;;;;;;;8726645;40;10606;-59
2021/08/02 14:45:41;;;;;;;;;15.25;14.50;;;;;;;;8727153;40;10521;-60
2021/08/02 14:51:48;;;;;;;;;12.00;12.00;;;;;;;;8727202;40;10461;-60
2021/08/02 14:57:50;;;;;;;;;16.75;14.00;;;;;;;;8725517;40;10585;-60
2021/08/02 15:03:55;;;;;;;;;17.50;14.25;;;;;;;;8724816;40;10760;-59
2021/08/02 15:09:57;;;;;;;;;15.75;13.75;;;;;;;;8726587;40;10499;-60
2021/08/02 15:16:00;;;;;;;;;18.50;13.50;;;;;;;;8726048;40;10531;-60
2021/08/02 15:22:06;;;;;;;;;11.75;10.75;;;;;;;;8727164;40;10551;-59
2021/08/02 15:28:09;;;;;;;;;16.25;13.50;;;;;;;;8726490;40;10674;-60
2021/08/02 15:34:12;;;;;;;;;17.25;14.25;;;;;;;;8726539;40;10511;-59
2021/08/02 15:40:17;;;;;;;;;19.50;15.00;;;;;;;;8725794;40;10529;-61
2021/08/02 15:46:22;;;;;;;;;15.50;12.75;;;;;;;;8725528;40;10722;-60
2021/08/02 15:52:31;;;;;;;;;12.00;11.00;;;;;;;;8727314;40;10428;-59
2021/08/02 15:58:37;;;;;;;;;13.75;12.75;;;;;;;;8724432;40;10534;-59
2021/08/02 16:04:45;;;;;;;;;13.25;11.50;;;;;;;;8726960;40;10706;-60
2021/08/02 16:10:48;;;;;;;;;8.50;8.50;;;;;;;;8725415;40;10979;-60
2021/08/02 16:16:51;;;;;;;;;11.75;10.00;;;;;;;;8725228;40;10454;-59
2021/08/02 16:22:54;;;;;;;;;11.75;10.00;;;;;;;;8725269;40;10491;-59
2021/08/02 16:28:57;;;;;;;;;14.25;10.00;;;;;;;;8724298;40;11253;-60
2021/08/02 16:35:00;;;;;;;;;8.75;8.75;;;;;;;;8725179;40;10428;-58
2021/08/02 16:41:02;;;;;;;;;8.75;8.75;;;;;;;;8725148;40;10388;-59
2021/08/02 16:47:04;;;;;;;;;5.25;3.75;;;;;;;;8726108;40;10614;-60
2021/08/02 16:53:07;;;;;;;;;7.75;6.25;;;;;;;;8724668;40;10443;-59
2021/08/02 16:59:09;;;;;;;;;7.75;7.25;;;;;;;;8724252;40;10450;-60
2021/08/02 17:05:11;;;;;;;;;8.75;8.75;;;;;;;;8724924;40;10468;-60
2021/08/02 17:11:13;;;;;;;;;9.00;7.50;;;;;;;;8725304;40;10386;-61
2021/08/02 17:17:16;;;;;;;;;8.75;7.75;;;;;;;;8724199;40;10474;-59
2021/08/02 17:23:18;;;;;;;;;10.75;10.75;;;;;;;;8724588;40;10562;-60
2021/08/02 17:29:21;;;;;;;;;7.75;7.75;;;;;;;;8724573;40;10419;-59
2021/08/02 17:35:24;;;;;;;;;10.50;10.50;;;;;;;;8724949;40;10728;-61
2021/08/02 17:41:26;;;;;;;;;10.50;8.00;;;;;;;;8724847;40;10500;-60
2021/08/02 17:47:28;;;;;;;;;10.25;8.50;;;;;;;;8723221;40;10546;-59
2021/08/02 17:53:30;;;;;;;;;10.00;9.00;;;;;;;;8723328;40;10697;-59
2021/08/02 17:59:32;;;;;;;;;10.75;10.25;;;;;;;;8722018;40;10779;-59
2021/08/02 18:05:35;;;;;;;;;8.75;8.00;;;;;;;;8722981;40;10445;-59
2021/08/02 18:11:42;;;;;;;;;6.75;6.25;;;;;;;;8723972;40;10685;-60
2021/08/02 18:17:44;;;;;;;;;10.75;9.00;;;;;;;;8723121;40;10572;-59
2021/08/02 18:23:46;;;;;;;;;11.50;10.00;;;;;;;;8722006;40;11764;-60
2021/08/02 18:29:48;;;;;;;;;8.50;8.50;;;;;;;;8723898;40;10703;-58
2021/08/02 18:35:50;;;;;;;;;11.50;10.25;;;;;;;;8722912;40;10487;-59
2021/08/02 18:41:53;;;;;;;;;10.25;9.00;;;;;;;;8722403;40;10494;-60
2021/08/02 18:47:56;;;;;;;;;14.75;14.25;;;;;;;;8722136;40;10693;-58
2021/08/02 18:53:58;;;;;;;;;12.25;11.75;;;;;;;;8729179;40;10460;-60
2021/08/02 19:00:00;;;;;;;;;15.00;10.50;;;;;;;;8722203;40;10603;-61
2021/08/02 19:06:02;;;;;;;;;12.75;10.25;;;;;;;;8722119;40;10538;-59
2021/08/02 19:12:13;;;;;;;;;16.25;13.50;;;;;;;;8721231;40;10629;-59
2021/08/02 19:18:34;;;;;;;;;14.75;14.25;;;;;;;;8720820;40;10516;-60
2021/08/02 19:24:40;;;;;;;;;17.00;13.50;;;;;;;;8724343;40;10513;-59
2021/08/02 19:30:43;;;;;;;;;19.00;16.25;;;;;;;;8725819;40;10608;-59
2021/08/02 19:36:47;;;;;;;;;11.25;9.00;;;;;;;;8724862;40;11054;-59
2021/08/02 19:42:58;;;;;;;;;20.25;16.50;;;;;;;;8725312;40;11421;-59
2021/08/02 19:49:08;;;;;;;;;17.25;16.00;;;;;;;;8725676;40;10517;-59
2021/08/02 19:55:13;;;;;;;;;18.50;16.50;;;;;;;;8723952;40;10452;-59
2021/08/02 20:01:15;;;;;;;;;23.25;20.75;;;;;;;;8731862;40;10662;-58
2021/08/02 20:07:21;;;;;;;;;21.75;18.25;;;;;;;;8724771;40;10781;-59
2021/08/02 20:13:25;;;;;;;;;24.75;22.75;;;;;;;;8724728;40;10624;-59
2021/08/02 20:19:27;;;;;;;;;22.50;21.25;;;;;;;;8724439;40;10799;-58
2021/08/02 20:25:34;;;;;;;;;23.50;23.00;;;;;;;;8725549;40;10881;-59
2021/08/02 20:31:46;;;;;;;;;25.50;21.75;;;;;;;;8723936;40;10731;-60
2021/08/02 20:37:53;;;;;;;;;24.50;22.50;;;;;;;;8723033;40;10612;-59
2021/08/02 20:43:58;;;;;;;;;24.50;23.00;;;;;;;;8724944;40;10549;-59
2021/08/02 20:50:03;;;;;;;;;23.50;23.50;;;;;;;;8724113;40;10603;-58
2021/08/02 20:56:07;;;;;;;;;24.75;24.75;;;;;;;;8724404;40;10537;-59
2021/08/02 21:02:33;;;;;;;;;26.25;26.25;;;;;;;;8722870;40;10661;-60
2021/08/02 21:08:57;;;;;;;;;28.00;23.75;;;;;;;;8725085;40;10601;-58
2021/08/02 21:15:01;;;;;;;;;25.75;24.00;;;;;;;;8720342;40;10820;-60
2021/08/02 21:21:03;;;;;;;;;23.25;23.25;;;;;;;;8723451;40;11133;-59
2021/08/02 21:27:06;;;;;;;;;24.00;24.00;;;;;;;;8723898;40;11264;-59
2021/08/02 21:33:08;;;;;;;;;27.75;25.75;;;;;;;;8723013;40;10727;-59
2021/08/02 21:39:11;;;;;;;;;28.25;28.00;;;;;;;;8723648;40;10794;-58
2021/08/02 21:45:13;;;;;;;;;20.75;20.75;;;;;;;;8722846;40;11238;-59
2021/08/02 21:51:17;;;;;;;;;25.50;25.50;;;;;;;;8723395;40;10611;-58
2021/08/02 21:57:20;;;;;;;;;22.00;21.50;;;;;;;;8724283;40;10566;-58
2021/08/02 22:03:22;;;;;;;;;25.75;22.00;;;;;;;;8723288;40;10734;-60
2021/08/02 22:09:24;;;;;;;;;23.00;21.25;;;;;;;;8723010;40;10714;-59
2021/08/02 22:15:26;;;;;;;;;27.00;24.50;;;;;;;;8723788;40;10555;-59
2021/08/02 22:21:30;;;;;;;;;24.50;22.50;;;;;;;;8722886;40;10581;-59
2021/08/02 22:27:32;;;;;;;;;22.25;20.00;;;;;;;;8721973;40;10968;-59
2021/08/02 22:33:34;;;;;;;;;25.00;24.50;;;;;;;;8722960;40;10779;-59
2021/08/02 22:39:38;;;;;;;;;23.50;22.25;;;;;;;;8723683;40;10667;-59
2021/08/02 22:45:40;;;;;;;;;28.75;23.25;;;;;;;;8723564;40;10830;-60
2021/08/02 22:51:44;;;;;;;;;20.50;20.00;;;;;;;;8722383;40;10788;-60
2021/08/02 22:57:54;;;;;;;;;27.25;26.00;;;;;;;;8725860;40;10543;-59
2021/08/02 23:03:57;;;;;;;;;23.75;22.75;;;;;;;;8726460;40;10638;-60
2021/08/02 23:10:00;;;;;;;;;26.00;25.50;;;;;;;;8725405;40;10674;-60
2021/08/02 23:16:04;;;;;;;;;31.25;29.25;;;;;;;;8725321;40;10720;-60
2021/08/02 23:22:09;;;;;;;;;30.75;28.25;;;;;;;;8727097;40;10647;-59
2021/08/02 23:28:13;;;;;;;;;25.25;25.25;;;;;;;;8725458;40;10791;-59
2021/08/02 23:34:22;;;;;;;;;27.25;27.25;;;;;;;;8726438;40;10694;-60
2021/08/02 23:40:31;;;;;;;;;27.00;22.25;;;;;;;;8725479;40;10715;-59
2021/08/02 23:46:33;;;;;;;;;27.50;25.75;;;;;;;;8725583;40;10822;-59
2021/08/02 23:52:36;;;;;;;;;24.25;23.75;;;;;;;;8725970;40;10909;-59
2021/08/02 23:58:39;;;;;;;;;23.75;22.50;;;;;;;;8725451;40;10755;-59
